LFRG/DOL METAR and TAF weather

Enter ICAO airport designator
Station Type Date Time Source
LFRG METAR 2020/07/06 22:00 UTC NOAA

LFRG 062200Z AUTO 29004KT 250V320 CAVOK 13/10 Q1025


Station Type Date Time Source
LFRG Decoded METAR 2020/07/06 22:00 UTC NOAA

Station name not available
Jul 06, 2020 - 06:00 PM EDT / 2020.07.06 2200 UTC
Wind: from the WNW (290 degrees) at 5 MPH (4 KT) (direction variable):0
Visibility: greater than 7 mile(s):0
Temperature: 55 F (13 C)
Dew Point: 50 F (10 C)
Relative Humidity: 81%
Pressure (altimeter): 30.27 in. Hg (1025 hPa)
ob: LFRG 062200Z AUTO 29004KT 250V320 CAVOK 13/10 Q1025
cycle: 22

Station Type Date Time Source
LFRG TAF 2014/12/22 18:42 UTC NOAA

TAF
AMD TAF
AMD LFRG 221837Z 2218/2221 25015KT 9999 OVC015
TEMPO 2218/2221 BKN007 PROB30
TEMPO 2218/2221 25015G25KT 4000 DZ BKN003

Example: see airport list